Time;durP1;ratioP1;P1;durP2;ratioP2;P2;SDS_P1;SDS_P2;PMS_P1;PMS_P2;Temp;Humidity;BMP_temperature;BMP_pressure;BME280_temperature;BME280_humidity;BME280_pressure;Samples;Min_cycle;Max_cycle;Signal;HPM_P1;HPM_P2
2022/06/11 00:02:22;;;;;;;9.35;5.10;;;;;;;;;;4994044;28;20216;-64
2022/06/11 00:04:47;;;;;;;9.70;5.82;;;;;;;;;;4993371;28;20243;-63
2022/06/11 00:07:14;;;;;;;10.70;5.10;;;;;;;;;;4993198;28;20680;-63
2022/06/11 00:09:39;;;;;;;14.90;6.93;;;;;;;;;;4994473;28;20269;-63
2022/06/11 00:12:05;;;;;;;12.35;6.90;;;;;;;;;;4994274;28;20749;-63
2022/06/11 00:14:30;;;;;;;14.05;6.35;;;;;;;;;;4993521;28;20220;-63
2022/06/11 00:16:56;;;;;;;10.55;6.18;;;;;;;;;;4994387;28;20264;-63
2022/06/11 00:19:21;;;;;;;12.82;6.03;;;;;;;;;;4993772;28;20213;-63
2022/06/11 00:21:48;;;;;;;12.35;6.07;;;;;;;;;;4993411;28;20325;-64
2022/06/11 00:24:13;;;;;;;11.25;5.70;;;;;;;;;;4992374;28;20218;-63
2022/06/11 00:26:39;;;;;;;11.27;5.38;;;;;;;;;;4994615;28;20224;-64
2022/06/11 00:29:04;;;;;;;9.75;4.80;;;;;;;;;;4993007;28;20226;-64
2022/06/11 00:31:29;;;;;;;9.95;5.00;;;;;;;;;;4998255;28;20224;-63
2022/06/11 00:33:54;;;;;;;10.50;4.78;;;;;;;;;;5012235;28;20223;-64
2022/06/11 00:36:20;;;;;;;10.80;4.75;;;;;;;;;;5012394;28;20693;-64
2022/06/11 00:38:46;;;;;;;9.15;4.68;;;;;;;;;;5013573;28;20216;-64
2022/06/11 00:41:12;;;;;;;9.85;4.57;;;;;;;;;;5013256;28;20263;-64
2022/06/11 00:43:39;;;;;;;9.88;4.40;;;;;;;;;;5008050;28;20609;-64
2022/06/11 00:46:23;;;;;;;9.57;4.10;;;;;;;;;;4993745;28;20603;-64
2022/06/11 00:48:48;;;;;;;11.52;4.60;;;;;;;;;;4992597;28;20221;-64
2022/06/11 00:51:15;;;;;;;7.82;4.03;;;;;;;;;;4992042;28;20219;-64
2022/06/11 00:53:43;;;;;;;9.57;4.20;;;;;;;;;;4993652;28;20239;-64
2022/06/11 00:56:10;;;;;;;10.07;4.00;;;;;;;;;;4992751;28;20214;-64
2022/06/11 00:58:37;;;;;;;10.77;4.55;;;;;;;;;;4992348;28;20233;-64
2022/06/11 01:01:02;;;;;;;7.80;4.70;;;;;;;;;;4991886;28;20220;-64
2022/06/11 01:03:32;;;;;;;9.02;4.30;;;;;;;;;;4991255;28;20240;-64
2022/06/11 01:06:04;;;;;;;8.32;4.68;;;;;;;;;;4993558;28;20301;-64
2022/06/11 01:08:36;;;;;;;8.32;4.53;;;;;;;;;;5001489;28;20319;-64
2022/06/11 01:11:04;;;;;;;12.55;4.78;;;;;;;;;;4992430;28;20240;-64
2022/06/11 01:13:32;;;;;;;9.88;4.65;;;;;;;;;;4991995;28;20656;-64
2022/06/11 01:15:59;;;;;;;10.70;4.70;;;;;;;;;;4991860;28;20727;-64
2022/06/11 01:18:32;;;;;;;7.97;4.95;;;;;;;;;;4990429;28;20205;-64
2022/06/11 01:20:58;;;;;;;8.80;4.93;;;;;;;;;;4992119;28;20248;-64
2022/06/11 01:23:24;;;;;;;8.75;4.75;;;;;;;;;;4992815;28;20209;-64
2022/06/11 01:26:13;;;;;;;7.97;4.55;;;;;;;;;;4992605;28;20626;-64
2022/06/11 01:28:55;;;;;;;9.27;5.28;;;;;;;;;;5005879;28;20205;-64
2022/06/11 01:31:22;;;;;;;9.43;4.97;;;;;;;;;;4993045;28;20228;-64
2022/06/11 01:33:57;;;;;;;11.82;5.13;;;;;;;;;;5011265;28;20555;-64
2022/06/11 01:36:23;;;;;;;9.70;4.78;;;;;;;;;;5012357;28;20303;-63
2022/06/11 01:38:52;;;;;;;9.55;4.72;;;;;;;;;;5010371;28;20212;-64
2022/06/11 01:41:33;;;;;;;7.10;4.28;;;;;;;;;;5010529;28;20687;-64
2022/06/11 01:44:00;;;;;;;17.17;5.18;;;;;;;;;;5003356;28;20251;-64
2022/06/11 01:46:27;;;;;;;8.98;4.85;;;;;;;;;;4999757;28;20233;-64
2022/06/11 01:48:55;;;;;;;8.65;4.90;;;;;;;;;;4991469;28;20647;-64
2022/06/11 01:51:23;;;;;;;10.50;5.40;;;;;;;;;;4992139;28;20221;-64
2022/06/11 01:53:53;;;;;;;11.65;5.70;;;;;;;;;;4990494;28;20576;-64
2022/06/11 01:56:21;;;;;;;8.68;5.10;;;;;;;;;;4990863;28;20350;-64
2022/06/11 01:58:51;;;;;;;9.57;4.90;;;;;;;;;;4990853;28;20233;-64
2022/06/11 02:01:28;;;;;;;8.02;4.80;;;;;;;;;;4990892;28;20217;-64
2022/06/11 02:03:55;;;;;;;8.82;4.93;;;;;;;;;;4992235;28;20244;-64
2022/06/11 02:06:24;;;;;;;8.13;4.78;;;;;;;;;;4991073;28;20217;-64
2022/06/11 02:08:53;;;;;;;7.53;4.75;;;;;;;;;;4991013;28;20283;-64
2022/06/11 02:11:19;;;;;;;7.03;4.60;;;;;;;;;;4991946;28;20225;-64
2022/06/11 02:13:47;;;;;;;11.27;5.50;;;;;;;;;;4991775;28;20209;-64
2022/06/11 02:16:22;;;;;;;11.05;5.03;;;;;;;;;;5005019;28;20776;-65
2022/06/11 02:18:48;;;;;;;11.65;5.15;;;;;;;;;;4992115;28;20216;-65
2022/06/11 02:21:14;;;;;;;9.02;4.85;;;;;;;;;;4990608;28;20224;-64
2022/06/11 02:23:42;;;;;;;10.30;5.68;;;;;;;;;;5007395;28;20547;-64
2022/06/11 02:26:11;;;;;;;10.07;5.65;;;;;;;;;;4991817;28;20240;-64
2022/06/11 02:28:37;;;;;;;8.95;5.25;;;;;;;;;;5006627;28;20217;-65
2022/06/11 02:31:08;;;;;;;10.52;5.60;;;;;;;;;;5009548;28;20226;-63
2022/06/11 02:33:34;;;;;;;9.15;5.63;;;;;;;;;;5010362;28;20747;-64
2022/06/11 02:36:02;;;;;;;9.45;5.22;;;;;;;;;;5009429;28;20296;-64
2022/06/11 02:38:28;;;;;;;8.02;4.88;;;;;;;;;;5011658;28;20672;-64
2022/06/11 02:40:59;;;;;;;10.02;5.75;;;;;;;;;;5011648;28;20270;-64
2022/06/11 02:43:25;;;;;;;9.48;5.35;;;;;;;;;;5006572;28;20300;-64
2022/06/11 02:45:50;;;;;;;8.02;5.30;;;;;;;;;;4991801;28;20311;-64
2022/06/11 02:48:15;;;;;;;8.43;4.97;;;;;;;;;;4990533;28;20232;-64
2022/06/11 02:50:42;;;;;;;10.63;4.90;;;;;;;;;;4991770;28;20233;-64
2022/06/11 02:53:07;;;;;;;8.07;4.70;;;;;;;;;;4991479;28;20213;-64
2022/06/11 02:55:33;;;;;;;9.75;5.10;;;;;;;;;;4991279;28;20220;-64
2022/06/11 02:57:58;;;;;;;7.55;4.80;;;;;;;;;;4994665;28;20691;-64
2022/06/11 03:00:26;;;;;;;6.80;5.10;;;;;;;;;;4995199;28;20232;-64
2022/06/11 03:02:51;;;;;;;10.43;5.65;;;;;;;;;;4994939;28;20206;-64
2022/06/11 03:05:17;;;;;;;9.43;5.45;;;;;;;;;;4995132;28;20251;-64
2022/06/11 03:07:43;;;;;;;10.82;5.13;;;;;;;;;;4995912;28;20213;-64
2022/06/11 03:10:08;;;;;;;12.20;4.93;;;;;;;;;;4994662;28;20229;-64
2022/06/11 03:12:34;;;;;;;7.43;4.60;;;;;;;;;;4995656;28;20216;-64
2022/06/11 03:14:59;;;;;;;9.82;4.85;;;;;;;;;;4995452;28;20239;-64
2022/06/11 03:17:25;;;;;;;8.10;4.20;;;;;;;;;;4993851;28;20292;-64
2022/06/11 03:19:50;;;;;;;6.40;4.20;;;;;;;;;;4995608;28;20585;-64
2022/06/11 03:22:17;;;;;;;9.35;4.43;;;;;;;;;;4994925;28;20220;-63
2022/06/11 03:24:43;;;;;;;7.90;5.07;;;;;;;;;;4994897;28;20229;-64
2022/06/11 03:27:08;;;;;;;7.95;4.55;;;;;;;;;;4994915;28;20221;-64
2022/06/11 03:29:33;;;;;;;8.45;4.65;;;;;;;;;;4995214;28;20240;-64
2022/06/11 03:31:59;;;;;;;7.88;4.20;;;;;;;;;;5002174;28;20223;-63
2022/06/11 03:34:24;;;;;;;8.45;4.20;;;;;;;;;;5012848;28;20710;-64
2022/06/11 03:36:52;;;;;;;8.63;4.22;;;;;;;;;;5014850;28;20629;-64
2022/06/11 03:39:17;;;;;;;14.38;4.30;;;;;;;;;;5013787;28;20208;-64
2022/06/11 03:41:43;;;;;;;127.10;10.73;;;;;;;;;;5015006;28;20567;-64
2022/06/11 03:44:08;;;;;;;35.63;7.10;;;;;;;;;;5003517;28;20221;-64
2022/06/11 03:46:33;;;;;;;10.40;4.93;;;;;;;;;;4994148;28;20205;-64
2022/06/11 03:48:59;;;;;;;35.35;6.95;;;;;;;;;;4994676;28;20230;-64
2022/06/11 03:51:24;;;;;;;17.05;5.72;;;;;;;;;;4993694;28;20260;-63
2022/06/11 03:53:49;;;;;;;9.25;5.07;;;;;;;;;;4995096;28;20244;-63
2022/06/11 03:56:15;;;;;;;9.43;4.85;;;;;;;;;;4994666;28;20268;-63
2022/06/11 03:58:40;;;;;;;12.85;4.95;;;;;;;;;;4993925;28;20236;-63
2022/06/11 04:01:14;;;;;;;8.13;5.00;;;;;;;;;;4994408;28;20213;-63
2022/06/11 04:03:40;;;;;;;33.08;5.45;;;;;;;;;;4994320;28;20213;-64
2022/06/11 04:06:06;;;;;;;15.35;4.80;;;;;;;;;;4993737;28;20224;-64
2022/06/11 04:08:31;;;;;;;10.13;4.43;;;;;;;;;;4994421;28;20225;-63
2022/06/11 04:10:56;;;;;;;11.55;4.82;;;;;;;;;;4994676;28;20225;-64
2022/06/11 04:13:22;;;;;;;11.85;4.63;;;;;;;;;;4992900;28;20224;-64
2022/06/11 04:15:47;;;;;;;22.33;4.72;;;;;;;;;;4994356;28;20205;-64
2022/06/11 04:18:16;;;;;;;7.63;4.15;;;;;;;;;;4992383;28;20221;-64
2022/06/11 04:20:41;;;;;;;9.18;4.20;;;;;;;;;;4992553;28;20217;-64
2022/06/11 04:23:07;;;;;;;172.00;14.10;;;;;;;;;;4993858;28;20213;-63
2022/06/11 04:25:32;;;;;;;11.05;4.13;;;;;;;;;;4994750;28;20711;-64
2022/06/11 04:27:58;;;;;;;15.90;4.30;;;;;;;;;;4993472;28;20263;-64
2022/06/11 04:30:24;;;;;;;6.78;3.75;;;;;;;;;;4993619;28;20311;-63
2022/06/11 04:32:49;;;;;;;16.48;4.28;;;;;;;;;;5008741;28;20216;-64
2022/06/11 04:35:14;;;;;;;9.18;3.47;;;;;;;;;;5012333;28;20209;-63
2022/06/11 04:37:39;;;;;;;11.05;3.75;;;;;;;;;;5013913;28;20217;-63
2022/06/11 04:40:07;;;;;;;6.97;3.38;;;;;;;;;;5013415;28;20263;-64
2022/06/11 04:42:33;;;;;;;14.18;3.50;;;;;;;;;;5012726;28;20212;-64
2022/06/11 04:44:59;;;;;;;19.10;3.63;;;;;;;;;;4997377;28;20244;-65
2022/06/11 04:47:25;;;;;;;17.92;3.65;;;;;;;;;;4993540;28;20695;-65
2022/06/11 04:49:51;;;;;;;249.07;20.55;;;;;;;;;;4992957;28;20244;-65
2022/06/11 04:52:16;;;;;;;13.77;3.38;;;;;;;;;;4992365;28;20304;-64
2022/06/11 04:54:41;;;;;;;10.45;2.90;;;;;;;;;;4993102;28;20221;-65
2022/06/11 04:57:06;;;;;;;23.38;3.20;;;;;;;;;;4993566;28;20221;-64
2022/06/11 04:59:32;;;;;;;29.20;4.03;;;;;;;;;;4993308;28;20233;-64
2022/06/11 05:01:58;;;;;;;10.68;2.67;;;;;;;;;;4992786;28;20809;-65
2022/06/11 05:04:23;;;;;;;17.65;3.00;;;;;;;;;;4992790;28;20209;-64
2022/06/11 05:06:49;;;;;;;28.17;3.97;;;;;;;;;;4993931;28;20209;-65
2022/06/11 05:09:15;;;;;;;11.65;2.47;;;;;;;;;;4992271;28;20698;-64
2022/06/11 05:11:41;;;;;;;13.32;2.55;;;;;;;;;;4993796;28;20284;-65
2022/06/11 05:14:06;;;;;;;15.05;3.08;;;;;;;;;;4992609;28;20304;-64
2022/06/11 05:16:31;;;;;;;10.75;2.22;;;;;;;;;;4992580;28;20209;-64
2022/06/11 05:18:56;;;;;;;13.80;2.80;;;;;;;;;;4992925;28;20236;-65
2022/06/11 05:21:22;;;;;;;20.08;2.70;;;;;;;;;;4992369;28;20552;-66
2022/06/11 05:23:47;;;;;;;14.70;2.60;;;;;;;;;;4992433;28;20221;-65
2022/06/11 05:26:14;;;;;;;13.45;3.20;;;;;;;;;;4992925;28;20221;-65
2022/06/11 05:28:39;;;;;;;19.45;3.17;;;;;;;;;;4993151;28;20224;-64
2022/06/11 05:31:04;;;;;;;136.15;10.50;;;;;;;;;;4992462;28;20210;-64
2022/06/11 05:33:29;;;;;;;41.95;4.72;;;;;;;;;;5012408;28;20669;-65
2022/06/11 05:35:55;;;;;;;43.45;4.68;;;;;;;;;;5012653;28;20621;-64
2022/06/11 05:38:21;;;;;;;17.98;2.88;;;;;;;;;;5011730;28;20224;-65
2022/06/11 05:40:48;;;;;;;17.92;3.33;;;;;;;;;;5012717;28;20614;-65
2022/06/11 05:43:13;;;;;;;27.45;3.40;;;;;;;;;;5010280;28;20287;-64
2022/06/11 05:45:57;;;;;;;24.85;3.50;;;;;;;;;;4991810;28;20304;-64
2022/06/11 05:48:24;;;;;;;18.98;3.88;;;;;;;;;;4992334;28;20212;-63
2022/06/11 05:50:50;;;;;;;44.10;4.80;;;;;;;;;;4992670;28;20236;-65
2022/06/11 05:53:16;;;;;;;41.10;4.30;;;;;;;;;;4990456;28;20696;-66
2022/06/11 05:55:41;;;;;;;27.45;3.25;;;;;;;;;;4992349;28;20225;-65
2022/06/11 05:58:11;;;;;;;18.17;3.17;;;;;;;;;;4991091;28;20232;-64
2022/06/11 06:00:36;;;;;;;17.33;3.47;;;;;;;;;;4992198;28;20619;-64
2022/06/11 06:03:01;;;;;;;45.72;5.95;;;;;;;;;;4991029;28;20304;-64
2022/06/11 06:05:28;;;;;;;79.03;6.57;;;;;;;;;;4991583;28;20217;-65
2022/06/11 06:07:53;;;;;;;16.13;2.88;;;;;;;;;;4992824;28;20263;-65
2022/06/11 06:10:19;;;;;;;20.30;2.90;;;;;;;;;;4991361;28;20237;-66
2022/06/11 06:12:44;;;;;;;19.25;3.65;;;;;;;;;;4990354;28;20221;-65
2022/06/11 06:15:11;;;;;;;25.33;3.65;;;;;;;;;;4991568;28;20271;-65
2022/06/11 06:17:37;;;;;;;16.70;3.38;;;;;;;;;;4992498;28;20554;-65
2022/06/11 06:20:02;;;;;;;40.10;4.88;;;;;;;;;;4991326;28;20681;-65
2022/06/11 06:22:28;;;;;;;21.80;3.33;;;;;;;;;;4992301;28;20231;-64
2022/06/11 06:24:53;;;;;;;11.05;2.67;;;;;;;;;;4992203;28;20216;-64
2022/06/11 06:27:18;;;;;;;16.38;3.03;;;;;;;;;;4991172;28;20221;-64
2022/06/11 06:29:43;;;;;;;15.85;3.85;;;;;;;;;;4991866;28;20229;-64
2022/06/11 06:32:09;;;;;;;15.85;3.05;;;;;;;;;;5000963;28;20216;-65
2022/06/11 06:34:34;;;;;;;22.50;3.60;;;;;;;;;;5011289;28;20212;-64
2022/06/11 06:36:59;;;;;;;18.45;3.15;;;;;;;;;;5011823;28;20273;-64
2022/06/11 06:39:25;;;;;;;26.05;4.07;;;;;;;;;;5011290;28;20216;-64
2022/06/11 06:41:50;;;;;;;21.08;2.95;;;;;;;;;;5010618;28;20709;-65
2022/06/11 06:44:16;;;;;;;44.28;5.55;;;;;;;;;;5000897;28;20225;-65
2022/06/11 06:46:42;;;;;;;23.48;3.80;;;;;;;;;;4991755;28;20305;-65
2022/06/11 06:49:08;;;;;;;60.38;5.70;;;;;;;;;;4990879;28;20315;-64
2022/06/11 06:51:34;;;;;;;24.25;3.50;;;;;;;;;;4992126;28;20224;-65
2022/06/11 06:54:00;;;;;;;36.63;4.05;;;;;;;;;;4992022;28;20297;-65
2022/06/11 06:56:29;;;;;;;21.95;3.78;;;;;;;;;;4990414;28;20291;-65
2022/06/11 06:58:55;;;;;;;17.08;3.70;;;;;;;;;;4991606;28;20241;-65
2022/06/11 07:01:20;;;;;;;18.48;2.88;;;;;;;;;;4990592;28;21749;-65
2022/06/11 07:03:45;;;;;;;24.38;3.72;;;;;;;;;;4991977;28;20748;-65
2022/06/11 07:06:11;;;;;;;16.60;3.40;;;;;;;;;;4991637;28;20221;-65
2022/06/11 07:08:37;;;;;;;18.23;3.38;;;;;;;;;;4991294;28;20607;-64
2022/06/11 07:11:02;;;;;;;14.88;3.03;;;;;;;;;;4990921;28;20774;-64
2022/06/11 07:13:29;;;;;;;19.65;3.40;;;;;;;;;;4991399;28;20209;-65
2022/06/11 07:15:55;;;;;;;18.58;3.42;;;;;;;;;;4990954;28;20235;-65
2022/06/11 07:18:23;;;;;;;15.57;3.58;;;;;;;;;;4991537;28;20772;-64
2022/06/11 07:20:49;;;;;;;15.65;3.45;;;;;;;;;;4991885;28;20240;-65
2022/06/11 07:23:25;;;;;;;17.27;3.20;;;;;;;;;;4990395;28;20221;-64
2022/06/11 07:25:52;;;;;;;13.38;2.90;;;;;;;;;;4990230;28;20248;-64
2022/06/11 07:28:19;;;;;;;16.02;3.17;;;;;;;;;;4989824;28;20231;-65
2022/06/11 07:30:45;;;;;;;20.77;3.92;;;;;;;;;;4990965;28;20286;-65
2022/06/11 07:33:11;;;;;;;17.55;3.50;;;;;;;;;;5008750;28;20217;-64
2022/06/11 07:35:36;;;;;;;16.08;3.17;;;;;;;;;;5011440;28;20216;-64
2022/06/11 07:38:03;;;;;;;18.58;3.38;;;;;;;;;;5009774;28;20212;-64
2022/06/11 07:40:28;;;;;;;13.95;3.47;;;;;;;;;;5011209;28;20509;-65
2022/06/11 07:42:53;;;;;;;18.05;3.20;;;;;;;;;;5011590;28;20270;-64
2022/06/11 07:45:19;;;;;;;13.55;3.08;;;;;;;;;;4994808;28;20220;-64
2022/06/11 07:47:53;;;;;;;22.17;3.70;;;;;;;;;;4995269;28;20220;-64
2022/06/11 07:50:18;;;;;;;16.15;3.13;;;;;;;;;;4994742;28;20221;-65
2022/06/11 07:52:44;;;;;;;26.08;3.97;;;;;;;;;;4993955;28;20235;-64
2022/06/11 07:55:09;;;;;;;22.42;3.15;;;;;;;;;;4994369;28;20292;-64
2022/06/11 07:57:35;;;;;;;20.38;2.95;;;;;;;;;;4993813;28;20640;-65
2022/06/11 08:00:00;;;;;;;82.75;6.60;;;;;;;;;;4994716;28;20233;-65
2022/06/11 08:02:25;;;;;;;24.27;3.90;;;;;;;;;;4994584;28;20217;-64
2022/06/11 08:04:52;;;;;;;15.65;3.20;;;;;;;;;;4994072;28;20640;-65
2022/06/11 08:07:17;;;;;;;197.70;14.70;;;;;;;;;;4994189;28;20240;-64
2022/06/11 08:09:42;;;;;;;24.52;3.58;;;;;;;;;;4994147;28;20723;-64
2022/06/11 08:12:08;;;;;;;15.93;3.10;;;;;;;;;;4993059;28;20645;-64
2022/06/11 08:14:33;;;;;;;22.15;3.63;;;;;;;;;;4994493;28;20224;-64
2022/06/11 08:16:59;;;;;;;16.42;3.97;;;;;;;;;;4994886;28;20213;-64
2022/06/11 08:19:24;;;;;;;18.77;3.17;;;;;;;;;;4993598;28;20783;-64
2022/06/11 08:21:49;;;;;;;13.68;2.97;;;;;;;;;;4994548;28;20271;-64
2022/06/11 08:24:14;;;;;;;16.50;3.20;;;;;;;;;;4993511;28;20233;-65
2022/06/11 08:26:40;;;;;;;11.38;2.90;;;;;;;;;;4993821;28;20213;-65
2022/06/11 08:29:06;;;;;;;15.48;3.13;;;;;;;;;;4993468;28;20283;-64
2022/06/11 08:31:31;;;;;;;16.30;3.20;;;;;;;;;;4998678;28;20255;-65
2022/06/11 08:33:56;;;;;;;74.88;7.53;;;;;;;;;;5013313;28;20242;-64
2022/06/11 08:36:22;;;;;;;13.43;3.05;;;;;;;;;;5013507;28;20643;-64
2022/06/11 08:38:47;;;;;;;17.80;3.55;;;;;;;;;;5013314;28;20216;-64
2022/06/11 08:41:15;;;;;;;24.50;3.92;;;;;;;;;;5012211;28;20213;-64
2022/06/11 08:43:41;;;;;;;28.67;3.90;;;;;;;;;;5006506;28;20209;-64
2022/06/11 08:46:07;;;;;;;15.90;2.67;;;;;;;;;;4992606;28;20573;-64
2022/06/11 08:48:32;;;;;;;17.15;2.92;;;;;;;;;;4993369;28;20201;-65
2022/06/11 08:51:03;;;;;;;17.42;2.92;;;;;;;;;;4993962;28;20229;-64
2022/06/11 08:53:28;;;;;;;13.70;2.72;;;;;;;;;;5001119;28;20212;-64
2022/06/11 08:55:54;;;;;;;28.73;3.78;;;;;;;;;;4990570;28;20217;-64
2022/06/11 08:58:23;;;;;;;16.98;2.67;;;;;;;;;;4992938;28;20728;-64
2022/06/11 09:01:04;;;;;;;22.42;3.70;;;;;;;;;;4991791;28;20236;-64
2022/06/11 09:03:29;;;;;;;20.02;2.95;;;;;;;;;;5001239;28;20362;-63
2022/06/11 09:05:59;;;;;;;67.95;6.47;;;;;;;;;;4992141;28;20639;-65
2022/06/11 09:08:24;;;;;;;15.15;2.90;;;;;;;;;;4992114;28;20220;-65
2022/06/11 09:10:56;;;;;;;16.73;3.05;;;;;;;;;;4992596;28;20229;-63
2022/06/11 09:13:37;;;;;;;11.45;2.22;;;;;;;;;;4993105;28;20216;-65
2022/06/11 09:16:12;;;;;;;14.88;2.65;;;;;;;;;;4985835;28;20290;-67
2022/06/11 09:18:45;;;;;;;14.55;3.05;;;;;;;;;;4993020;28;20212;-65
2022/06/11 09:21:26;;;;;;;13.75;2.70;;;;;;;;;;4991409;28;20205;-66
2022/06/11 09:23:55;;;;;;;14.65;2.78;;;;;;;;;;4991184;28;20220;-67
2022/06/11 09:26:29;;;;;;;12.02;2.50;;;;;;;;;;4992831;28;20678;-66
2022/06/11 09:28:59;;;;;;;15.77;3.40;;;;;;;;;;4992268;28;20312;-62
2022/06/11 09:31:28;;;;;;;20.83;3.22;;;;;;;;;;4995236;28;20208;-63
2022/06/11 09:33:56;;;;;;;22.23;3.10;;;;;;;;;;5012570;28;20586;-64
2022/06/11 09:36:25;;;;;;;17.90;3.50;;;;;;;;;;5010352;28;20240;-64
2022/06/11 09:39:07;;;;;;;11.80;2.75;;;;;;;;;;5012643;28;20702;-64
2022/06/11 09:41:33;;;;;;;13.55;2.15;;;;;;;;;;5010467;28;20719;-63
2022/06/11 09:44:03;;;;;;;14.70;2.58;;;;;;;;;;5003543;28;20225;-65
2022/06/11 09:46:31;;;;;;;21.30;3.10;;;;;;;;;;5000169;28;20216;-64
2022/06/11 09:48:57;;;;;;;15.05;2.80;;;;;;;;;;4992843;28;20239;-63
2022/06/11 09:51:26;;;;;;;12.23;2.72;;;;;;;;;;4991795;28;20212;-64
2022/06/11 09:53:58;;;;;;;13.40;2.70;;;;;;;;;;4992432;28;20260;-64
2022/06/11 09:56:28;;;;;;;13.63;2.83;;;;;;;;;;4990692;28;20645;-64
2022/06/11 09:59:04;;;;;;;12.50;2.30;;;;;;;;;;4990295;28;20222;-63
2022/06/11 10:01:31;;;;;;;25.13;3.30;;;;;;;;;;4998484;28;20236;-64
2022/06/11 10:04:00;;;;;;;23.33;3.80;;;;;;;;;;4992532;28;20232;-63
2022/06/11 10:06:26;;;;;;;64.05;5.78;;;;;;;;;;4990799;28;20244;-63
2022/06/11 10:08:52;;;;;;;14.18;2.78;;;;;;;;;;4990983;28;20217;-64
2022/06/11 10:11:20;;;;;;;21.05;2.90;;;;;;;;;;4989337;28;20634;-64
2022/06/11 10:13:47;;;;;;;13.07;2.88;;;;;;;;;;4992459;28;20204;-64
2022/06/11 10:16:18;;;;;;;11.77;2.55;;;;;;;;;;4991504;28;20626;-65
2022/06/11 10:18:43;;;;;;;12.90;2.63;;;;;;;;;;4991725;28;20292;-64
2022/06/11 10:21:10;;;;;;;11.32;2.78;;;;;;;;;;4991371;28;20300;-65
2022/06/11 10:23:40;;;;;;;11.88;2.50;;;;;;;;;;4991002;28;20225;-66
2022/06/11 10:26:06;;;;;;;19.25;2.88;;;;;;;;;;4989710;28;20228;-66
2022/06/11 10:28:33;;;;;;;12.52;2.38;;;;;;;;;;4992532;28;20205;-65
2022/06/11 10:31:03;;;;;;;14.02;2.55;;;;;;;;;;4991868;28;20217;-67
2022/06/11 10:33:31;;;;;;;15.00;3.08;;;;;;;;;;5003014;28;20208;-68
2022/06/11 10:35:58;;;;;;;17.80;3.05;;;;;;;;;;5010292;28;20299;-65
2022/06/11 10:38:23;;;;;;;11.55;2.67;;;;;;;;;;5011375;28;20666;-66
2022/06/11 10:40:49;;;;;;;14.85;2.88;;;;;;;;;;5010923;28;20299;-67
2022/06/11 10:43:17;;;;;;;13.23;3.10;;;;;;;;;;5009542;28;20212;-65
2022/06/11 10:45:42;;;;;;;14.05;2.60;;;;;;;;;;4990572;28;20217;-66
2022/06/11 10:48:14;;;;;;;27.65;3.38;;;;;;;;;;4990703;28;20770;-66
2022/06/11 10:50:39;;;;;;;15.13;2.95;;;;;;;;;;4990546;28;20240;-65
2022/06/11 10:53:07;;;;;;;23.17;3.50;;;;;;;;;;4991452;28;20300;-66
2022/06/11 10:55:34;;;;;;;20.48;4.32;;;;;;;;;;4990110;28;20700;-66
2022/06/11 10:58:03;;;;;;;19.30;4.25;;;;;;;;;;4991775;28;20217;-67
2022/06/11 11:00:30;;;;;;;38.70;4.72;;;;;;;;;;4996845;28;20618;-65
2022/06/11 11:03:03;;;;;;;22.90;3.92;;;;;;;;;;4991838;28;20205;-65
2022/06/11 11:05:52;;;;;;;23.27;3.33;;;;;;;;;;4997914;28;20201;-64
2022/06/11 11:08:17;;;;;;;17.23;3.10;;;;;;;;;;4990794;28;20707;-65
2022/06/11 11:10:44;;;;;;;17.27;3.03;;;;;;;;;;4991867;28;20229;-65
2022/06/11 11:13:14;;;;;;;15.85;3.22;;;;;;;;;;4989964;28;20224;-65
2022/06/11 11:15:41;;;;;;;15.50;3.83;;;;;;;;;;4988964;28;20224;-66
2022/06/11 11:18:12;;;;;;;44.88;4.57;;;;;;;;;;4992540;28;20217;-65
2022/06/11 11:20:39;;;;;;;30.88;3.58;;;;;;;;;;4995626;28;20301;-65
2022/06/11 11:23:09;;;;;;;17.45;3.00;;;;;;;;;;4993349;28;20243;-66
2022/06/11 11:25:36;;;;;;;28.80;4.05;;;;;;;;;;4995463;28;20213;-65
2022/06/11 11:28:02;;;;;;;22.65;3.53;;;;;;;;;;4993569;28;20259;-65
2022/06/11 11:30:29;;;;;;;13.18;2.83;;;;;;;;;;4993012;28;20244;-65
2022/06/11 11:32:54;;;;;;;17.15;3.30;;;;;;;;;;5009064;28;20582;-65
2022/06/11 11:35:21;;;;;;;23.77;3.13;;;;;;;;;;5014914;28;20227;-65
2022/06/11 11:37:54;;;;;;;98.45;7.50;;;;;;;;;;5014285;28;20239;-64
2022/06/11 11:40:27;;;;;;;40.80;5.10;;;;;;;;;;5013032;28;20683;-65
2022/06/11 11:42:55;;;;;;;66.65;6.03;;;;;;;;;;5013671;28;20331;-66
2022/06/11 11:45:27;;;;;;;22.80;3.53;;;;;;;;;;4995090;28;20267;-65
2022/06/11 11:47:54;;;;;;;33.35;3.90;;;;;;;;;;4995212;28;20296;-65
2022/06/11 11:50:22;;;;;;;39.33;4.55;;;;;;;;;;4994073;28;20255;-65
2022/06/11 11:52:51;;;;;;;20.92;3.22;;;;;;;;;;4993604;28;20336;-66
2022/06/11 11:55:19;;;;;;;26.80;3.78;;;;;;;;;;4993163;28;20213;-66
2022/06/11 11:57:48;;;;;;;24.55;2.95;;;;;;;;;;4994079;28;20239;-66
2022/06/11 12:00:27;;;;;;;17.23;2.78;;;;;;;;;;4993756;28;20225;-65
2022/06/11 12:02:55;;;;;;;19.05;2.95;;;;;;;;;;4994959;28;20220;-66
2022/06/11 12:05:23;;;;;;;14.88;3.05;;;;;;;;;;4993693;28;21322;-66
2022/06/11 12:07:48;;;;;;;13.95;2.80;;;;;;;;;;4993401;28;20220;-66
2022/06/11 12:10:13;;;;;;;10.77;2.50;;;;;;;;;;4992806;28;20225;-63
2022/06/11 12:12:39;;;;;;;20.17;3.15;;;;;;;;;;4993792;28;20213;-65
2022/06/11 12:15:15;;;;;;;14.57;3.20;;;;;;;;;;4992457;28;20220;-65
2022/06/11 12:17:45;;;;;;;12.38;2.50;;;;;;;;;;4993889;28;20247;-65
2022/06/11 12:20:13;;;;;;;16.73;3.03;;;;;;;;;;5006542;28;20240;-65
2022/06/11 12:22:40;;;;;;;23.17;3.42;;;;;;;;;;5012545;28;20213;-67
2022/06/11 12:25:05;;;;;;;14.60;2.70;;;;;;;;;;5011498;28;20220;-65
2022/06/11 12:27:36;;;;;;;12.82;2.83;;;;;;;;;;5012748;28;20678;-65
2022/06/11 12:30:03;;;;;;;23.35;3.35;;;;;;;;;;5012130;28;20228;-65
2022/06/11 12:32:30;;;;;;;12.23;2.60;;;;;;;;;;5005745;28;20220;-62
2022/06/11 12:34:56;;;;;;;16.88;2.55;;;;;;;;;;4990821;28;20586;-62
2022/06/11 12:37:48;;;;;;;14.35;2.53;;;;;;;;;;4990846;28;20215;-62
2022/06/11 12:40:18;;;;;;;262.92;18.48;;;;;;;;;;5006106;28;20224;-63
2022/06/11 12:42:46;;;;;;;23.60;3.38;;;;;;;;;;5008430;28;20747;-62
2022/06/11 12:45:12;;;;;;;25.42;3.58;;;;;;;;;;5002663;28;20228;-63
2022/06/11 12:47:53;;;;;;;28.60;3.60;;;;;;;;;;4987373;28;20208;-63
2022/06/11 12:50:26;;;;;;;24.95;3.63;;;;;;;;;;4994108;28;20259;-62
2022/06/11 12:52:55;;;;;;;13.05;2.80;;;;;;;;;;5022507;28;20760;-63
2022/06/11 12:55:26;;;;;;;11.07;2.60;;;;;;;;;;5006731;28;20231;-63
2022/06/11 12:57:57;;;;;;;26.92;3.15;;;;;;;;;;5006712;28;20779;-62
2022/06/11 13:00:31;;;;;;;16.70;2.80;;;;;;;;;;5005592;28;20770;-64
2022/06/11 13:02:58;;;;;;;16.67;2.88;;;;;;;;;;5021957;28;20669;-63
2022/06/11 13:05:26;;;;;;;11.70;2.50;;;;;;;;;;5006587;28;20258;-63
2022/06/11 13:07:58;;;;;;;19.02;3.13;;;;;;;;;;4996079;28;20264;-64
2022/06/11 13:10:30;;;;;;;12.70;2.83;;;;;;;;;;5021486;28;20220;-64
2022/06/11 13:12:56;;;;;;;60.15;6.30;;;;;;;;;;5021680;28;20220;-64
2022/06/11 13:15:22;;;;;;;16.00;3.05;;;;;;;;;;4989983;28;20210;-64
2022/06/11 13:18:00;;;;;;;21.45;3.40;;;;;;;;;;4987758;28;20221;-63
2022/06/11 13:20:34;;;;;;;39.90;4.10;;;;;;;;;;5021373;28;20214;-63
2022/06/11 13:23:15;;;;;;;13.85;2.75;;;;;;;;;;4986717;28;20680;-63
2022/06/11 13:26:01;;;;;;;23.23;3.65;;;;;;;;;;5021298;28;20625;-62
2022/06/11 13:28:37;;;;;;;11.07;2.67;;;;;;;;;;5005134;28;20220;-63
2022/06/11 13:31:21;;;;;;;24.88;3.30;;;;;;;;;;5001829;28;20229;-64
2022/06/11 13:33:49;;;;;;;13.82;2.85;;;;;;;;;;5005673;28;20216;-63
2022/06/11 13:36:28;;;;;;;23.60;3.33;;;;;;;;;;5005537;28;20216;-63
2022/06/11 13:38:59;;;;;;;20.48;2.97;;;;;;;;;;5006160;28;20306;-63
2022/06/11 13:41:33;;;;;;;24.52;3.35;;;;;;;;;;5000209;28;20213;-63
2022/06/11 13:44:10;;;;;;;35.55;3.80;;;;;;;;;;5010988;28;20224;-63
2022/06/11 13:46:44;;;;;;;31.73;4.00;;;;;;;;;;4986918;28;20253;-63
2022/06/11 13:49:20;;;;;;;16.05;2.63;;;;;;;;;;4984688;28;20321;-62
2022/06/11 13:51:46;;;;;;;17.08;2.85;;;;;;;;;;4987450;28;20217;-62
2022/06/11 13:57:03;;;;;;;16.08;2.83;;;;;;;;;;5005581;28;20239;-63
2022/06/11 13:59:32;;;;;;;18.15;2.47;;;;;;;;;;5005418;28;20319;-63
2022/06/11 14:02:03;;;;;;;13.68;2.50;;;;;;;;;;5002083;28;20221;-63
2022/06/11 14:04:28;;;;;;;10.13;2.88;;;;;;;;;;4995485;28;20267;-63
2022/06/11 14:06:55;;;;;;;11.80;2.60;;;;;;;;;;5009927;28;20220;-63
2022/06/11 14:12:26;;;;;;;8.60;1.80;;;;;;;;;;5010963;28;20216;-62
2022/06/11 14:15:10;;;;;;;10.75;2.25;;;;;;;;;;5007808;28;20270;-62
2022/06/11 14:17:38;;;;;;;12.43;2.30;;;;;;;;;;5005104;28;20278;-62
2022/06/11 14:20:16;;;;;;;10.77;2.22;;;;;;;;;;5009796;28;20220;-62
2022/06/11 14:22:46;;;;;;;12.70;2.53;;;;;;;;;;5011950;28;20573;-62
2022/06/11 14:25:30;;;;;;;12.57;2.33;;;;;;;;;;5010782;28;20300;-62
2022/06/11 14:27:56;;;;;;;14.38;2.50;;;;;;;;;;5011684;28;20219;-62
2022/06/11 14:30:22;;;;;;;12.63;2.50;;;;;;;;;;5009933;28;20622;-62
2022/06/11 14:32:59;;;;;;;14.93;2.60;;;;;;;;;;4995944;28;20680;-62
2022/06/11 14:35:25;;;;;;;26.42;2.85;;;;;;;;;;4989658;28;20223;-62
2022/06/11 14:37:51;;;;;;;32.65;3.42;;;;;;;;;;4991041;28;20271;-63
2022/06/11 14:40:19;;;;;;;22.60;2.92;;;;;;;;;;4989444;28;20217;-64
2022/06/11 14:42:53;;;;;;;11.10;2.20;;;;;;;;;;4988979;28;20220;-63